Time;durP1;ratioP1;P1;durP2;ratioP2;P2;SDS_P1;SDS_P2;PMS_P1;PMS_P2;Temp;Humidity;BMP_temperature;BMP_pressure;BME280_temperature;BME280_humidity;BME280_pressure;Samples;Min_cycle;Max_cycle;Signal;HPM_P1;HPM_P2
2023/04/27 00:01:49;;;;;;;3.63;1.50;;;;;;;;;;5120864;27;20043;-66
2023/04/27 00:04:17;;;;;;;3.55;1.60;;;;;;;;;;5106513;27;20498;-66
2023/04/27 00:06:45;;;;;;;2.95;1.40;;;;;;;;;;5113061;27;20047;-65
2023/04/27 00:09:12;;;;;;;4.30;1.48;;;;;;;;;;5108853;27;20070;-65
2023/04/27 00:11:41;;;;;;;5.38;1.48;;;;;;;;;;5113972;27;20449;-66
2023/04/27 00:14:08;;;;;;;2.33;1.42;;;;;;;;;;5116182;27;20391;-66
2023/04/27 00:16:35;;;;;;;2.10;1.35;;;;;;;;;;5110527;27;20126;-66
2023/04/27 00:19:03;;;;;;;3.70;1.40;;;;;;;;;;5091706;28;20059;-66
2023/04/27 00:21:32;;;;;;;2.70;1.50;;;;;;;;;;5097134;28;20077;-66
2023/04/27 00:23:59;;;;;;;2.58;1.50;;;;;;;;;;5110732;28;20052;-66
2023/04/27 00:26:26;;;;;;;2.97;1.45;;;;;;;;;;5105682;28;20048;-66
2023/04/27 00:28:53;;;;;;;4.00;1.75;;;;;;;;;;5106254;27;20052;-66
2023/04/27 00:31:21;;;;;;;4.22;1.63;;;;;;;;;;5109369;28;20051;-66
2023/04/27 00:33:48;;;;;;;4.30;1.55;;;;;;;;;;5092897;28;20467;-66
2023/04/27 00:36:15;;;;;;;3.50;1.70;;;;;;;;;;5110875;28;20044;-66
2023/04/27 00:38:44;;;;;;;4.03;1.60;;;;;;;;;;5107807;28;20048;-66
2023/04/27 00:41:11;;;;;;;4.10;1.67;;;;;;;;;;5105785;28;20082;-66
2023/04/27 00:43:42;;;;;;;2.42;1.38;;;;;;;;;;5109531;28;20479;-66
2023/04/27 00:46:10;;;;;;;1.98;1.38;;;;;;;;;;5087139;28;20048;-66
2023/04/27 00:48:37;;;;;;;2.95;1.70;;;;;;;;;;5108195;28;20071;-65
2023/04/27 00:51:06;;;;;;;3.40;1.60;;;;;;;;;;5091371;28;20059;-66
2023/04/27 00:53:33;;;;;;;3.38;1.67;;;;;;;;;;5106263;27;20515;-66
2023/04/27 00:56:02;;;;;;;3.63;1.60;;;;;;;;;;5107196;28;20395;-65
2023/04/27 00:58:29;;;;;;;5.05;1.77;;;;;;;;;;5093042;28;20059;-66
2023/04/27 01:00:56;;;;;;;4.38;1.50;;;;;;;;;;5107590;28;20431;-66
2023/04/27 01:03:24;;;;;;;4.90;1.77;;;;;;;;;;5103983;28;20063;-66
2023/04/27 01:05:51;;;;;;;3.05;1.70;;;;;;;;;;5107382;27;20128;-66
2023/04/27 01:08:18;;;;;;;4.28;2.00;;;;;;;;;;5110460;28;20517;-66
2023/04/27 01:10:45;;;;;;;5.72;1.65;;;;;;;;;;5111549;27;20501;-66
2023/04/27 01:13:14;;;;;;;5.85;1.95;;;;;;;;;;5097371;28;20062;-66
2023/04/27 01:15:41;;;;;;;3.58;1.77;;;;;;;;;;5116386;27;20109;-66
2023/04/27 01:18:09;;;;;;;5.80;2.00;;;;;;;;;;5095446;28;20056;-66
2023/04/27 01:20:37;;;;;;;3.00;1.77;;;;;;;;;;5107310;28;20073;-66
2023/04/27 01:23:05;;;;;;;5.63;1.92;;;;;;;;;;5109248;28;20055;-66
2023/04/27 01:25:33;;;;;;;2.80;1.50;;;;;;;;;;5108646;28;20047;-66
2023/04/27 01:28:01;;;;;;;4.30;1.98;;;;;;;;;;5104210;27;20523;-66
2023/04/27 01:30:28;;;;;;;3.92;1.70;;;;;;;;;;5109213;28;20047;-66
2023/04/27 01:32:56;;;;;;;3.55;1.75;;;;;;;;;;5108138;28;20096;-66
2023/04/27 01:35:23;;;;;;;2.70;1.70;;;;;;;;;;5107581;28;20039;-66
2023/04/27 01:37:50;;;;;;;4.25;1.70;;;;;;;;;;5108678;28;20047;-66
2023/04/27 01:40:18;;;;;;;2.80;1.50;;;;;;;;;;5103009;28;20043;-66
2023/04/27 01:42:46;;;;;;;2.92;1.48;;;;;;;;;;5108959;28;20067;-66
2023/04/27 01:45:14;;;;;;;4.95;1.58;;;;;;;;;;5109075;28;20522;-66
2023/04/27 01:47:41;;;;;;;2.30;1.30;;;;;;;;;;5108211;28;20108;-66
2023/04/27 01:50:09;;;;;;;3.65;1.60;;;;;;;;;;5107378;28;20070;-65
2023/04/27 01:52:36;;;;;;;3.30;1.52;;;;;;;;;;5104801;28;20039;-66
2023/04/27 01:55:03;;;;;;;3.35;1.50;;;;;;;;;;5109548;28;20108;-66
2023/04/27 01:57:31;;;;;;;3.42;1.52;;;;;;;;;;5105952;28;20040;-66
2023/04/27 01:59:59;;;;;;;3.95;1.67;;;;;;;;;;5109008;28;20506;-65
2023/04/27 02:02:27;;;;;;;10.57;1.90;;;;;;;;;;5107994;28;20047;-66
2023/04/27 02:04:54;;;;;;;4.70;2.00;;;;;;;;;;5107605;28;20071;-66
2023/04/27 02:07:21;;;;;;;3.58;2.03;;;;;;;;;;5107383;28;20054;-66
2023/04/27 02:09:48;;;;;;;4.60;1.70;;;;;;;;;;5111798;27;20054;-67
2023/04/27 02:12:16;;;;;;;4.82;1.60;;;;;;;;;;5092625;28;20620;-67
2023/04/27 02:14:43;;;;;;;2.70;1.70;;;;;;;;;;5092564;28;20056;-66
2023/04/27 02:17:11;;;;;;;6.70;1.80;;;;;;;;;;5105752;27;20043;-67
2023/04/27 02:19:39;;;;;;;4.75;1.90;;;;;;;;;;5104930;28;20048;-65
2023/04/27 02:22:06;;;;;;;4.03;1.90;;;;;;;;;;5092095;28;20135;-67
2023/04/27 02:24:33;;;;;;;4.97;1.90;;;;;;;;;;5102263;28;20051;-66
2023/04/27 02:27:00;;;;;;;6.18;2.17;;;;;;;;;;5105366;28;20051;-66
2023/04/27 02:29:30;;;;;;;2.78;1.63;;;;;;;;;;5106196;28;20426;-66
2023/04/27 02:31:57;;;;;;;4.65;1.85;;;;;;;;;;5105349;28;20036;-65
2023/04/27 02:34:26;;;;;;;2.25;1.35;;;;;;;;;;5105430;28;20074;-66
2023/04/27 02:36:53;;;;;;;2.80;1.48;;;;;;;;;;5104235;28;20043;-65
2023/04/27 02:39:20;;;;;;;2.85;1.40;;;;;;;;;;5108965;28;20056;-65
2023/04/27 02:41:48;;;;;;;4.00;1.80;;;;;;;;;;5104790;28;20043;-65
2023/04/27 02:44:15;;;;;;;3.15;1.52;;;;;;;;;;5108374;28;20047;-65
2023/04/27 02:46:42;;;;;;;3.78;1.80;;;;;;;;;;5105747;28;20039;-65
2023/04/27 02:49:10;;;;;;;4.15;1.60;;;;;;;;;;5088505;28;20055;-66
2023/04/27 02:51:38;;;;;;;4.78;1.48;;;;;;;;;;5103830;28;20056;-65
2023/04/27 02:54:06;;;;;;;4.35;1.75;;;;;;;;;;5094057;28;20136;-66
2023/04/27 02:56:33;;;;;;;3.05;1.38;;;;;;;;;;5106052;28;20039;-66
2023/04/27 02:59:00;;;;;;;3.67;1.70;;;;;;;;;;5105429;28;20051;-66
2023/04/27 03:01:27;;;;;;;3.78;1.60;;;;;;;;;;5098499;28;20054;-66
2023/04/27 03:03:55;;;;;;;1.88;1.38;;;;;;;;;;5109643;28;20052;-65
2023/04/27 03:06:22;;;;;;;4.18;1.67;;;;;;;;;;5112145;28;20044;-65
2023/04/27 03:08:51;;;;;;;3.67;1.65;;;;;;;;;;5095740;28;20051;-65
2023/04/27 03:11:18;;;;;;;5.63;1.73;;;;;;;;;;5112914;27;20051;-65
2023/04/27 03:13:45;;;;;;;3.60;1.80;;;;;;;;;;5097855;28;20054;-65
2023/04/27 03:16:13;;;;;;;3.17;1.65;;;;;;;;;;5120170;27;20096;-66
2023/04/27 03:18:40;;;;;;;4.30;1.55;;;;;;;;;;5092961;28;20051;-65
2023/04/27 03:21:08;;;;;;;3.20;1.52;;;;;;;;;;5092477;27;20074;-65
2023/04/27 03:23:35;;;;;;;4.43;1.65;;;;;;;;;;5108621;27;20043;-65
2023/04/27 03:26:07;;;;;;;3.50;1.58;;;;;;;;;;5111910;27;20047;-65
2023/04/27 03:28:35;;;;;;;3.40;1.90;;;;;;;;;;5110485;27;20076;-65
2023/04/27 03:31:05;;;;;;;3.97;1.58;;;;;;;;;;5110809;27;20047;-65
2023/04/27 03:33:32;;;;;;;2.30;1.73;;;;;;;;;;5091414;27;20103;-65
2023/04/27 03:36:00;;;;;;;3.70;2.00;;;;;;;;;;5099918;27;20046;-65
2023/04/27 03:38:27;;;;;;;4.32;1.63;;;;;;;;;;5097351;27;20058;-66
2023/04/27 03:40:55;;;;;;;4.30;1.70;;;;;;;;;;5121153;27;20050;-65
2023/04/27 03:43:24;;;;;;;3.92;2.03;;;;;;;;;;5093361;27;20120;-65
2023/04/27 03:45:52;;;;;;;3.85;2.22;;;;;;;;;;5113859;27;20043;-65
2023/04/27 03:48:19;;;;;;;4.22;2.00;;;;;;;;;;5116782;27;20141;-66
2023/04/27 03:50:47;;;;;;;4.30;1.73;;;;;;;;;;5108094;27;20074;-66
2023/04/27 03:53:14;;;;;;;4.30;2.15;;;;;;;;;;5111688;27;20062;-66
2023/04/27 03:55:42;;;;;;;6.25;2.10;;;;;;;;;;5119670;27;20150;-65
2023/04/27 03:58:10;;;;;;;5.30;2.17;;;;;;;;;;5107005;27;20121;-65
2023/04/27 04:00:38;;;;;;;7.07;2.47;;;;;;;;;;5117453;27;20059;-65
2023/04/27 04:03:06;;;;;;;4.07;2.00;;;;;;;;;;5106640;27;20051;-65
2023/04/27 04:05:33;;;;;;;3.70;2.20;;;;;;;;;;5120383;27;20050;-65
2023/04/27 04:08:00;;;;;;;3.67;2.10;;;;;;;;;;5099916;27;20055;-65
2023/04/27 04:10:28;;;;;;;4.07;2.08;;;;;;;;;;5120949;27;20050;-65
2023/04/27 04:12:55;;;;;;;4.72;1.92;;;;;;;;;;5095043;28;20143;-65
2023/04/27 04:15:22;;;;;;;3.05;1.63;;;;;;;;;;5117634;27;20059;-65
2023/04/27 04:17:51;;;;;;;5.95;2.17;;;;;;;;;;5122424;27;20061;-65
2023/04/27 04:20:18;;;;;;;3.45;2.10;;;;;;;;;;5098580;27;20086;-65
2023/04/27 04:22:45;;;;;;;4.88;2.00;;;;;;;;;;5114632;27;20040;-65
2023/04/27 04:25:13;;;;;;;3.20;1.65;;;;;;;;;;5118831;27;20059;-65
2023/04/27 04:27:40;;;;;;;3.70;1.88;;;;;;;;;;5100628;27;21019;-65
2023/04/27 04:30:08;;;;;;;3.67;2.03;;;;;;;;;;5088046;27;20082;-65
2023/04/27 04:32:37;;;;;;;3.10;1.80;;;;;;;;;;5088192;28;21053;-65
2023/04/27 04:35:06;;;;;;;6.18;1.92;;;;;;;;;;5106328;27;20092;-65
2023/04/27 04:37:35;;;;;;;3.50;1.73;;;;;;;;;;5106439;27;20051;-65
2023/04/27 04:40:07;;;;;;;4.53;2.03;;;;;;;;;;5101044;27;20159;-66
2023/04/27 04:42:35;;;;;;;5.53;1.92;;;;;;;;;;5116246;27;20097;-66
2023/04/27 04:45:03;;;;;;;5.05;1.80;;;;;;;;;;5112355;27;20096;-65
2023/04/27 04:47:32;;;;;;;3.22;1.42;;;;;;;;;;5109864;27;20036;-65
2023/04/27 04:50:00;;;;;;;3.25;1.77;;;;;;;;;;5110202;27;20564;-65
2023/04/27 04:52:29;;;;;;;5.93;1.73;;;;;;;;;;5109074;27;20081;-65
2023/04/27 04:54:56;;;;;;;2.58;1.50;;;;;;;;;;5116889;27;20047;-65
2023/04/27 04:57:23;;;;;;;3.45;1.83;;;;;;;;;;5116083;27;20046;-65
2023/04/27 04:59:50;;;;;;;4.80;1.63;;;;;;;;;;5119064;27;20400;-65
2023/04/27 05:02:18;;;;;;;2.63;1.67;;;;;;;;;;5110140;27;20056;-65
2023/04/27 05:04:45;;;;;;;2.75;1.48;;;;;;;;;;5088182;28;20055;-65
2023/04/27 05:07:12;;;;;;;4.45;1.63;;;;;;;;;;5110034;27;20393;-65
2023/04/27 05:09:41;;;;;;;5.00;1.85;;;;;;;;;;5097896;28;20058;-65
2023/04/27 05:12:08;;;;;;;5.05;1.85;;;;;;;;;;5116593;27;20054;-65
2023/04/27 05:14:35;;;;;;;5.03;2.20;;;;;;;;;;5112705;27;20059;-65
2023/04/27 05:17:03;;;;;;;6.13;1.90;;;;;;;;;;5114542;27;20043;-65
2023/04/27 05:19:30;;;;;;;2.97;1.63;;;;;;;;;;5112830;27;20059;-65
2023/04/27 05:21:58;;;;;;;4.22;1.80;;;;;;;;;;5122788;27;20083;-66
2023/04/27 05:24:26;;;;;;;4.82;1.75;;;;;;;;;;5122870;27;20054;-66
2023/04/27 05:26:54;;;;;;;4.50;2.00;;;;;;;;;;5117974;27;20091;-65
2023/04/27 05:29:22;;;;;;;4.97;1.98;;;;;;;;;;5106116;27;20118;-65
2023/04/27 05:31:49;;;;;;;2.60;1.50;;;;;;;;;;5113825;27;20477;-65
2023/04/27 05:34:16;;;;;;;3.38;1.52;;;;;;;;;;5112880;27;20047;-66
2023/04/27 05:36:45;;;;;;;2.63;1.40;;;;;;;;;;5111882;27;20040;-66
2023/04/27 05:39:16;;;;;;;4.45;1.60;;;;;;;;;;5118901;27;20055;-65
2023/04/27 05:41:43;;;;;;;3.25;1.50;;;;;;;;;;5121838;27;20134;-65
2023/04/27 05:44:11;;;;;;;9.63;2.00;;;;;;;;;;5124554;27;20157;-66
2023/04/27 05:46:39;;;;;;;5.40;1.65;;;;;;;;;;5116488;27;20055;-65
2023/04/27 05:49:06;;;;;;;5.45;1.73;;;;;;;;;;5117242;27;20099;-65
2023/04/27 05:51:34;;;;;;;2.78;1.60;;;;;;;;;;5110572;27;20073;-65
2023/04/27 05:54:01;;;;;;;3.40;1.50;;;;;;;;;;5108884;27;20055;-66
2023/04/27 05:56:28;;;;;;;4.70;1.70;;;;;;;;;;5117540;27;20051;-65
2023/04/27 05:58:55;;;;;;;5.32;1.65;;;;;;;;;;5119224;27;20816;-65
2023/04/27 06:01:24;;;;;;;4.72;1.80;;;;;;;;;;5117146;27;20051;-65
2023/04/27 06:03:51;;;;;;;3.30;1.52;;;;;;;;;;5111868;27;20050;-65
2023/04/27 06:06:18;;;;;;;2.30;1.35;;;;;;;;;;5107559;28;20212;-66
2023/04/27 06:08:46;;;;;;;4.13;1.27;;;;;;;;;;5108528;27;20064;-66
2023/04/27 06:11:13;;;;;;;3.10;1.50;;;;;;;;;;5109710;27;20051;-67
2023/04/27 06:13:40;;;;;;;6.32;1.45;;;;;;;;;;5110733;27;20410;-65
2023/04/27 06:16:08;;;;;;;2.88;1.13;;;;;;;;;;5102054;27;20387;-68
2023/04/27 06:18:36;;;;;;;2.72;1.30;;;;;;;;;;5094554;27;20150;-66
2023/04/27 06:21:04;;;;;;;3.78;1.30;;;;;;;;;;5104993;27;20048;-66
2023/04/27 06:23:31;;;;;;;2.50;1.40;;;;;;;;;;5099296;27;20052;-67
2023/04/27 06:25:58;;;;;;;3.17;1.40;;;;;;;;;;5104539;27;20054;-67
2023/04/27 06:28:26;;;;;;;3.45;1.48;;;;;;;;;;5107550;27;20129;-67
2023/04/27 06:30:54;;;;;;;3.08;1.30;;;;;;;;;;5098607;27;20086;-66
2023/04/27 06:33:21;;;;;;;2.67;1.40;;;;;;;;;;5105650;27;20104;-66
2023/04/27 06:35:50;;;;;;;2.17;1.23;;;;;;;;;;5107741;28;20402;-67
2023/04/27 06:38:17;;;;;;;3.50;1.00;;;;;;;;;;5107852;27;20043;-66
2023/04/27 06:40:45;;;;;;;2.03;0.82;;;;;;;;;;5106252;27;20134;-65
2023/04/27 06:43:12;;;;;;;5.28;1.15;;;;;;;;;;5109865;27;20054;-67
2023/04/27 06:45:39;;;;;;;2.00;0.90;;;;;;;;;;5108945;27;20066;-67
2023/04/27 06:48:06;;;;;;;2.17;1.08;;;;;;;;;;5106828;28;20055;-67
2023/04/27 06:50:34;;;;;;;4.25;0.90;;;;;;;;;;5106762;28;20055;-65
2023/04/27 06:53:02;;;;;;;2.47;0.93;;;;;;;;;;5102933;28;20054;-68
2023/04/27 06:55:29;;;;;;;3.03;1.00;;;;;;;;;;5115354;28;20066;-67
2023/04/27 06:57:57;;;;;;;1.40;0.90;;;;;;;;;;5115346;28;20047;-67
2023/04/27 07:00:24;;;;;;;2.10;0.90;;;;;;;;;;5110106;28;20051;-66
2023/04/27 07:02:51;;;;;;;2.88;1.10;;;;;;;;;;5104383;28;20054;-65
2023/04/27 07:05:18;;;;;;;5.00;1.30;;;;;;;;;;5107036;28;20055;-65
2023/04/27 07:07:46;;;;;;;2.60;1.13;;;;;;;;;;5111129;28;20054;-65
2023/04/27 07:10:15;;;;;;;1.50;1.05;;;;;;;;;;5110794;28;20091;-66
2023/04/27 07:12:43;;;;;;;2.45;1.20;;;;;;;;;;5109359;28;20406;-66
2023/04/27 07:15:10;;;;;;;2.40;1.10;;;;;;;;;;5111002;28;20054;-66
2023/04/27 07:17:37;;;;;;;3.20;1.00;;;;;;;;;;5115159;28;20046;-66
2023/04/27 07:20:05;;;;;;;3.35;1.08;;;;;;;;;;5112947;28;20051;-65
2023/04/27 07:22:33;;;;;;;2.55;0.98;;;;;;;;;;5113666;28;20058;-65
2023/04/27 07:25:00;;;;;;;2.47;1.00;;;;;;;;;;5110577;28;20056;-65
2023/04/27 07:27:30;;;;;;;2.70;1.20;;;;;;;;;;5119899;28;20066;-66
2023/04/27 07:29:57;;;;;;;2.33;1.02;;;;;;;;;;5106144;28;20062;-66
2023/04/27 07:32:25;;;;;;;0.88;0.70;;;;;;;;;;5109633;28;20055;-65
2023/04/27 07:34:52;;;;;;;1.63;0.95;;;;;;;;;;5106106;28;20128;-65
2023/04/27 07:37:20;;;;;;;3.95;1.38;;;;;;;;;;5115555;28;20582;-65
2023/04/27 07:39:47;;;;;;;3.30;0.95;;;;;;;;;;5118542;28;20047;-66
2023/04/27 07:42:15;;;;;;;2.45;0.90;;;;;;;;;;5112699;28;20059;-65
2023/04/27 07:44:43;;;;;;;3.47;1.40;;;;;;;;;;5098964;28;20083;-65
2023/04/27 07:47:12;;;;;;;2.20;0.90;;;;;;;;;;5118458;28;20047;-65
2023/04/27 07:49:39;;;;;;;1.88;0.93;;;;;;;;;;5111978;27;20894;-71
2023/04/27 07:52:07;;;;;;;2.67;1.00;;;;;;;;;;5108997;27;20079;-71
2023/04/27 07:54:35;;;;;;;2.85;1.00;;;;;;;;;;5116730;27;20050;-72
2023/04/27 07:57:02;;;;;;;2.58;1.20;;;;;;;;;;5109772;27;20050;-71
2023/04/27 07:59:30;;;;;;;4.07;1.58;;;;;;;;;;5117730;27;20518;-70
2023/04/27 08:01:58;;;;;;;3.95;1.10;;;;;;;;;;5112781;27;20043;-70
2023/04/27 08:04:26;;;;;;;3.45;1.95;;;;;;;;;;5109058;27;20516;-71
2023/04/27 08:06:53;;;;;;;2.00;1.02;;;;;;;;;;5109709;27;20090;-71
2023/04/27 08:09:20;;;;;;;2.13;1.15;;;;;;;;;;5120864;27;20054;-70
2023/04/27 08:11:48;;;;;;;2.40;1.08;;;;;;;;;;5115499;27;20055;-70
2023/04/27 08:14:15;;;;;;;3.22;0.80;;;;;;;;;;5115912;27;20524;-71
2023/04/27 08:16:42;;;;;;;2.72;0.98;;;;;;;;;;5110333;27;20059;-70
2023/04/27 08:19:11;;;;;;;2.50;0.98;;;;;;;;;;5131266;27;20537;-70
2023/04/27 08:21:38;;;;;;;1.30;0.90;;;;;;;;;;5126931;27;20102;-70
2023/04/27 08:24:06;;;;;;;5.75;0.90;;;;;;;;;;5131361;27;20046;-70
2023/04/27 08:26:34;;;;;;;1.67;0.90;;;;;;;;;;5130695;27;20087;-71
2023/04/27 08:29:01;;;;;;;3.28;0.90;;;;;;;;;;5132360;27;20383;-70
2023/04/27 08:31:29;;;;;;;2.13;0.90;;;;;;;;;;5130230;27;20464;-71
2023/04/27 08:33:58;;;;;;;2.15;1.00;;;;;;;;;;5129263;27;20043;-70
2023/04/27 08:36:27;;;;;;;2.03;1.00;;;;;;;;;;5111352;27;20497;-72
2023/04/27 08:38:55;;;;;;;2.60;0.80;;;;;;;;;;5131270;27;20046;-70
2023/04/27 08:41:22;;;;;;;3.47;1.05;;;;;;;;;;5124160;27;20039;-71
2023/04/27 08:43:50;;;;;;;2.00;0.85;;;;;;;;;;5129674;27;20073;-70
2023/04/27 08:46:21;;;;;;;2.75;0.98;;;;;;;;;;5128579;27;20043;-70
2023/04/27 08:48:50;;;;;;;3.92;1.00;;;;;;;;;;5123100;27;20217;-71
2023/04/27 08:51:17;;;;;;;4.47;1.00;;;;;;;;;;5122788;27;20075;-71
2023/04/27 08:53:49;;;;;;;1.00;0.70;;;;;;;;;;5130802;27;20487;-71
2023/04/27 08:56:16;;;;;;;4.10;1.00;;;;;;;;;;5130597;27;20101;-70
2023/04/27 08:58:44;;;;;;;1.13;0.80;;;;;;;;;;5129758;27;20046;-71
2023/04/27 09:01:11;;;;;;;3.85;1.05;;;;;;;;;;5127953;27;20555;-71
2023/04/27 09:03:38;;;;;;;2.33;0.95;;;;;;;;;;5111379;27;20125;-70
2023/04/27 09:06:06;;;;;;;2.00;0.90;;;;;;;;;;5128337;27;20043;-70
2023/04/27 09:08:43;;;;;;;2.13;1.33;;;;;;;;;;5129664;27;20509;-70
2023/04/27 09:11:12;;;;;;;2.40;0.60;;;;;;;;;;5127128;27;20055;-70
2023/04/27 09:13:40;;;;;;;1.88;0.98;;;;;;;;;;5128640;27;20045;-70
2023/04/27 09:16:08;;;;;;;2.15;0.98;;;;;;;;;;5124233;27;20505;-71
2023/04/27 09:18:36;;;;;;;1.27;0.80;;;;;;;;;;5118439;27;20403;-71
2023/04/27 09:21:05;;;;;;;2.95;1.13;;;;;;;;;;5099275;27;20047;-71
2023/04/27 09:23:33;;;;;;;1.70;0.90;;;;;;;;;;5118175;27;20048;-70
2023/04/27 09:26:01;;;;;;;2.35;1.00;;;;;;;;;;5116047;27;20135;-71
2023/04/27 09:28:31;;;;;;;2.83;1.00;;;;;;;;;;5116537;27;20044;-71
2023/04/27 09:30:59;;;;;;;2.10;0.98;;;;;;;;;;5102526;27;20043;-70
2023/04/27 09:33:26;;;;;;;2.75;1.35;;;;;;;;;;5118174;27;20536;-71
2023/04/27 09:35:55;;;;;;;3.75;1.25;;;;;;;;;;5122480;27;20051;-70
2023/04/27 09:38:23;;;;;;;2.38;1.10;;;;;;;;;;5113966;27;20131;-71
2023/04/27 09:40:50;;;;;;;3.28;1.20;;;;;;;;;;5108796;27;20205;-71
2023/04/27 09:43:18;;;;;;;2.15;1.02;;;;;;;;;;5118094;27;20043;-71
2023/04/27 09:45:46;;;;;;;3.17;0.77;;;;;;;;;;5119695;27;20512;-71
2023/04/27 09:48:14;;;;;;;2.55;1.00;;;;;;;;;;5114818;27;20046;-70
2023/04/27 09:50:41;;;;;;;1.55;0.88;;;;;;;;;;5097661;27;20056;-71
2023/04/27 09:53:10;;;;;;;1.77;1.08;;;;;;;;;;5108304;28;20051;-71
2023/04/27 09:55:40;;;;;;;3.13;1.20;;;;;;;;;;5112118;27;20726;-72
2023/04/27 09:58:19;;;;;;;2.55;0.95;;;;;;;;;;5105763;27;20467;-71
2023/04/27 10:00:56;;;;;;;3.85;1.30;;;;;;;;;;5111629;27;20069;-71
2023/04/27 10:03:27;;;;;;;2.58;1.23;;;;;;;;;;5116052;27;20043;-71
2023/04/27 10:06:17;;;;;;;2.13;0.90;;;;;;;;;;5113996;27;20509;-71
2023/04/27 10:08:44;;;;;;;2.28;1.05;;;;;;;;;;5113586;27;20046;-70
2023/04/27 10:11:15;;;;;;;5.72;1.38;;;;;;;;;;5113784;27;20079;-71
2023/04/27 10:13:51;;;;;;;3.20;1.00;;;;;;;;;;5106563;27;20071;-71
2023/04/27 10:16:20;;;;;;;4.10;1.40;;;;;;;;;;5111618;27;20055;-71
2023/04/27 10:18:52;;;;;;;1.88;1.10;;;;;;;;;;5129733;27;20047;-71
2023/04/27 10:21:20;;;;;;;2.80;1.23;;;;;;;;;;5126176;27;20521;-71
2023/04/27 10:23:49;;;;;;;2.20;1.10;;;;;;;;;;5127810;27;20505;-71
2023/04/27 10:26:22;;;;;;;3.30;1.30;;;;;;;;;;5124121;27;20486;-71
2023/04/27 10:28:57;;;;;;;1.70;1.10;;;;;;;;;;5125410;27;20057;-71
2023/04/27 10:31:29;;;;;;;2.85;1.23;;;;;;;;;;5126090;27;20100;-71
2023/04/27 10:34:07;;;;;;;3.42;1.02;;;;;;;;;;5123044;27;20444;-71
2023/04/27 10:36:38;;;;;;;1.98;1.10;;;;;;;;;;5107457;28;20047;-71
2023/04/27 10:39:14;;;;;;;2.45;1.20;;;;;;;;;;5126098;27;20055;-71
2023/04/27 10:41:50;;;;;;;2.20;1.10;;;;;;;;;;5126228;27;20111;-72
2023/04/27 10:44:18;;;;;;;2.53;1.20;;;;;;;;;;5125109;27;20504;-71
2023/04/27 10:46:53;;;;;;;3.20;0.98;;;;;;;;;;5126295;27;20070;-71
2023/04/27 10:49:20;;;;;;;1.70;0.95;;;;;;;;;;5128494;27;20043;-72
2023/04/27 10:51:48;;;;;;;2.63;1.00;;;;;;;;;;5117205;27;20070;-71
2023/04/27 10:54:15;;;;;;;2.92;1.02;;;;;;;;;;5127987;27;20490;-71
2023/04/27 10:56:42;;;;;;;2.90;1.20;;;;;;;;;;5126587;27;20047;-72
2023/04/27 10:59:10;;;;;;;5.13;1.17;;;;;;;;;;5124150;27;20055;-72
2023/04/27 11:01:37;;;;;;;3.20;1.02;;;;;;;;;;5123916;27;20039;-71
2023/04/27 11:04:06;;;;;;;3.15;1.40;;;;;;;;;;5125604;27;20047;-72
2023/04/27 11:06:42;;;;;;;2.53;1.05;;;;;;;;;;5126530;27;20043;-71
2023/04/27 11:09:09;;;;;;;3.45;1.40;;;;;;;;;;5126538;27;20139;-71
2023/04/27 11:11:37;;;;;;;1.88;1.20;;;;;;;;;;5105904;27;20051;-71
2023/04/27 11:14:04;;;;;;;3.42;1.30;;;;;;;;;;5126691;27;20083;-71
2023/04/27 11:16:32;;;;;;;5.28;1.23;;;;;;;;;;5127630;27;20047;-72
2023/04/27 11:19:06;;;;;;;2.80;1.40;;;;;;;;;;5125790;27;20042;-72
2023/04/27 11:21:33;;;;;;;3.72;1.20;;;;;;;;;;5128397;27;20063;-71
2023/04/27 11:24:04;;;;;;;3.10;1.20;;;;;;;;;;5127107;27;20057;-72
2023/04/27 11:26:32;;;;;;;1.92;1.20;;;;;;;;;;5129593;27;20054;-72
2023/04/27 11:28:59;;;;;;;2.50;1.20;;;;;;;;;;5130617;27;20478;-72
2023/04/27 11:31:27;;;;;;;3.08;1.27;;;;;;;;;;5131270;27;20058;-72
2023/04/27 11:33:55;;;;;;;3.05;1.50;;;;;;;;;;5131457;27;20043;-71
2023/04/27 11:36:26;;;;;;;2.38;1.20;;;;;;;;;;5131466;27;20505;-72
2023/04/27 11:38:58;;;;;;;11.57;5.20;;;;;;;;;;5131644;27;20063;-72
2023/04/27 11:41:33;;;;;;;3.55;1.55;;;;;;;;;;5130362;27;20069;-72
2023/04/27 11:44:04;;;;;;;2.67;1.25;;;;;;;;;;5106573;27;20498;-73
2023/04/27 11:46:32;;;;;;;6.75;3.42;;;;;;;;;;5120525;27;20050;-72
2023/04/27 11:49:02;;;;;;;1.90;1.15;;;;;;;;;;5110919;27;20096;-72
2023/04/27 11:51:31;;;;;;;2.47;1.35;;;;;;;;;;5112468;27;20107;-72
2023/04/27 11:54:02;;;;;;;3.75;1.48;;;;;;;;;;5111165;27;20050;-72
2023/04/27 11:56:36;;;;;;;4.50;1.60;;;;;;;;;;5124054;27;20046;-72
2023/04/27 11:59:04;;;;;;;3.90;1.33;;;;;;;;;;5126436;27;20047;-72
2023/04/27 12:01:32;;;;;;;2.40;1.15;;;;;;;;;;5130572;27;20512;-73
2023/04/27 12:04:00;;;;;;;2.05;1.13;;;;;;;;;;5130589;27;20122;-72
2023/04/27 12:06:27;;;;;;;3.45;1.20;;;;;;;;;;5131328;27;20147;-72
2023/04/27 12:08:56;;;;;;;2.05;1.13;;;;;;;;;;5110960;27;20082;-72
2023/04/27 12:11:25;;;;;;;2.67;0.98;;;;;;;;;;5117801;27;20047;-73
2023/04/27 12:13:52;;;;;;;3.30;1.45;;;;;;;;;;5110173;27;20062;-72
2023/04/27 12:16:21;;;;;;;1.38;0.90;;;;;;;;;;5130799;27;20079;-72
2023/04/27 12:18:49;;;;;;;1.35;1.00;;;;;;;;;;5131029;27;20049;-72
2023/04/27 12:21:16;;;;;;;2.50;1.20;;;;;;;;;;5129556;27;20546;-72
2023/04/27 12:23:44;;;;;;;3.05;1.40;;;;;;;;;;5130726;27;20494;-72
2023/04/27 12:26:12;;;;;;;3.03;1.30;;;;;;;;;;5111080;27;20058;-73
2023/04/27 12:28:40;;;;;;;2.58;1.23;;;;;;;;;;5131481;27;20050;-72
2023/04/27 12:31:07;;;;;;;5.50;1.23;;;;;;;;;;5129980;27;20051;-72
2023/04/27 12:33:35;;;;;;;4.82;1.40;;;;;;;;;;5129987;27;20400;-72
2023/04/27 12:36:02;;;;;;;3.00;1.23;;;;;;;;;;5128817;27;20078;-72
2023/04/27 12:38:29;;;;;;;2.38;1.15;;;;;;;;;;5129718;27;20075;-72
2023/04/27 12:40:56;;;;;;;2.42;1.25;;;;;;;;;;5128428;27;20043;-72
2023/04/27 12:43:25;;;;;;;4.80;1.27;;;;;;;;;;5129821;27;20061;-72
2023/04/27 12:45:52;;;;;;;2.53;1.20;;;;;;;;;;5129952;27;20055;-72
2023/04/27 12:48:21;;;;;;;3.20;1.20;;;;;;;;;;5111641;27;20513;-73
2023/04/27 12:50:48;;;;;;;2.53;1.30;;;;;;;;;;5121346;27;20131;-72
2023/04/27 12:53:16;;;;;;;1.98;1.10;;;;;;;;;;5127202;27;20394;-72
2023/04/27 12:55:43;;;;;;;3.65;1.48;;;;;;;;;;5126360;27;20051;-72
2023/04/27 12:58:10;;;;;;;1.83;1.17;;;;;;;;;;5129058;27;20055;-73
2023/04/27 13:00:40;;;;;;;2.78;1.50;;;;;;;;;;5128941;27;20046;-72
2023/04/27 13:03:07;;;;;;;4.93;2.50;;;;;;;;;;5129662;27;20147;-71
2023/04/27 13:05:35;;;;;;;3.45;1.55;;;;;;;;;;5128647;27;20043;-71
2023/04/27 13:08:04;;;;;;;3.08;1.40;;;;;;;;;;5130053;27;20051;-71
2023/04/27 13:10:31;;;;;;;1.88;1.25;;;;;;;;;;5126366;27;20470;-71
2023/04/27 13:13:00;;;;;;;2.72;1.42;;;;;;;;;;5129516;27;20050;-71
2023/04/27 13:15:28;;;;;;;4.05;1.60;;;;;;;;;;5127887;27;20384;-71
2023/04/27 13:17:57;;;;;;;2.53;1.40;;;;;;;;;;5128858;27;20054;-71
2023/04/27 13:20:25;;;;;;;2.50;1.38;;;;;;;;;;5110276;27;20039;-71
2023/04/27 13:22:52;;;;;;;2.40;1.55;;;;;;;;;;5109813;27;20099;-72
2023/04/27 13:25:19;;;;;;;2.72;1.38;;;;;;;;;;5128900;27;20517;-71
2023/04/27 13:27:47;;;;;;;3.10;1.45;;;;;;;;;;5128447;27;20043;-72
2023/04/27 13:30:14;;;;;;;2.67;1.30;;;;;;;;;;5109907;27;20143;-72
2023/04/27 13:32:42;;;;;;;1.90;1.30;;;;;;;;;;5128145;27;20047;-71
2023/04/27 13:35:11;;;;;;;5.55;1.40;;;;;;;;;;5128696;27;20110;-71
2023/04/27 13:37:38;;;;;;;1.60;1.10;;;;;;;;;;5128410;27;20039;-71
2023/04/27 13:40:08;;;;;;;2.53;1.30;;;;;;;;;;5110918;27;20047;-71
2023/04/27 13:42:35;;;;;;;3.80;1.20;;;;;;;;;;5128194;27;20100;-71
2023/04/27 13:45:04;;;;;;;3.70;1.33;;;;;;;;;;5128255;27;20051;-71
2023/04/27 13:47:35;;;;;;;3.20;1.20;;;;;;;;;;5128482;27;21119;-71
2023/04/27 13:50:03;;;;;;;4.63;1.63;;;;;;;;;;5110034;27;20133;-71
2023/04/27 13:52:32;;;;;;;2.67;1.27;;;;;;;;;;5124019;27;20046;-71
2023/04/27 13:54:59;;;;;;;2.80;1.45;;;;;;;;;;5124454;27;20050;-72
2023/04/27 13:57:27;;;;;;;3.13;1.55;;;;;;;;;;5127223;27;20359;-71
2023/04/27 13:59:54;;;;;;;2.13;1.20;;;;;;;;;;5122986;27;20047;-71
2023/04/27 14:02:22;;;;;;;3.22;1.60;;;;;;;;;;5126492;27;20066;-71
2023/04/27 14:04:49;;;;;;;1.80;1.30;;;;;;;;;;5129289;27;20051;-71
2023/04/27 14:07:16;;;;;;;2.28;1.40;;;;;;;;;;5128243;27;20469;-71
2023/04/27 14:09:45;;;;;;;3.90;1.45;;;;;;;;;;5129301;27;20050;-71
2023/04/27 14:12:12;;;;;;;2.28;1.48;;;;;;;;;;5128196;27;20652;-71
2023/04/27 14:14:40;;;;;;;2.95;1.55;;;;;;;;;;5128498;27;20047;-71
2023/04/27 14:17:07;;;;;;;2.63;1.42;;;;;;;;;;5115219;27;20059;-72
2023/04/27 14:19:35;;;;;;;5.32;1.67;;;;;;;;;;5113084;27;20116;-71
2023/04/27 14:22:03;;;;;;;4.15;1.67;;;;;;;;;;5110188;27;20266;-71
2023/04/27 14:24:30;;;;;;;3.95;1.67;;;;;;;;;;5110134;27;20057;-71
2023/04/27 14:26:59;;;;;;;2.22;1.58;;;;;;;;;;5108782;27;20051;-72
2023/04/27 14:29:26;;;;;;;3.65;1.60;;;;;;;;;;5109550;27;20055;-72
2023/04/27 14:31:54;;;;;;;2.38;1.40;;;;;;;;;;5111474;27;20043;-72
2023/04/27 14:34:22;;;;;;;7.28;1.70;;;;;;;;;;5109729;27;20065;-72
2023/04/27 14:36:49;;;;;;;3.63;1.45;;;;;;;;;;5110606;27;20048;-71
2023/04/27 14:39:16;;;;;;;5.57;1.60;;;;;;;;;;5110536;27;20043;-72
2023/04/27 14:41:43;;;;;;;2.60;1.50;;;;;;;;;;5113636;27;20051;-71
2023/04/27 14:44:12;;;;;;;2.30;1.42;;;;;;;;;;5116384;27;20501;-71
2023/04/27 14:46:39;;;;;;;2.60;1.70;;;;;;;;;;5115010;27;20055;-72
2023/04/27 14:49:07;;;;;;;2.28;1.60;;;;;;;;;;5116766;27;20066;-71